createdAt,value
2022-12-26T00:00:59.090Z,29.53
2022-12-26T00:03:38.469Z,28.37
2022-12-26T00:06:16.489Z,29.23
2022-12-26T00:08:44.553Z,29.33
2022-12-26T00:11:12.599Z,28.57
2022-12-26T00:13:41.714Z,28.87
2022-12-26T00:16:20.729Z,30.40
2022-12-26T00:18:49.183Z,28.77
2022-12-26T00:21:18.384Z,32.47
2022-12-26T00:23:45.940Z,30.57
2022-12-26T00:26:19.492Z,28.80
2022-12-26T00:28:46.994Z,27.27
2022-12-26T00:31:17.650Z,29.00
2022-12-26T00:33:44.953Z,30.93
2022-12-26T00:36:15.461Z,27.00
2022-12-26T00:38:43.993Z,31.43
2022-12-26T00:41:13.076Z,30.30
2022-12-26T00:43:40.065Z,29.57
2022-12-26T00:46:07.599Z,27.70
2022-12-26T00:48:34.534Z,26.37
2022-12-26T00:51:02.210Z,26.43
2022-12-26T00:53:29.713Z,25.53
2022-12-26T00:55:57.208Z,27.27
2022-12-26T00:58:24.543Z,29.13
2022-12-26T01:00:52.495Z,27.03
2022-12-26T01:03:20.075Z,27.53
2022-12-26T01:05:49.937Z,26.83
2022-12-26T01:08:23.453Z,26.20
2022-12-26T01:10:52.116Z,26.27
2022-12-26T01:13:19.250Z,25.90
2022-12-26T01:15:50.810Z,26.00
2022-12-26T01:18:18.028Z,26.73
2022-12-26T01:20:45.445Z,27.23
2022-12-26T01:23:12.382Z,25.27
2022-12-26T01:26:14.908Z,25.37
2022-12-26T01:28:27.221Z,24.77
2022-12-26T01:30:54.762Z,25.97
2022-12-26T01:33:21.694Z,26.83
2022-12-26T01:35:53.287Z,25.63
2022-12-26T01:38:21.610Z,24.90
2022-12-26T01:41:09.975Z,23.30
2022-12-26T01:44:04.847Z,23.73
2022-12-26T01:46:45.023Z,24.53
2022-12-26T01:49:20.804Z,24.57
2022-12-26T01:51:53.362Z,25.53
2022-12-26T01:54:39.168Z,27.20
2022-12-26T01:57:15.103Z,25.43
2022-12-26T01:59:42.527Z,24.67
2022-12-26T02:02:10.314Z,26.30
2022-12-26T02:04:59.970Z,25.67
2022-12-26T02:07:27.316Z,27.83
2022-12-26T02:09:54.696Z,27.30
2022-12-26T02:12:34.130Z,27.00
2022-12-26T02:15:08.704Z,30.27
2022-12-26T02:17:37.166Z,31.40
2022-12-26T02:20:25.791Z,33.47
2022-12-26T02:23:08.118Z,34.43
2022-12-26T02:25:53.937Z,31.47
2022-12-26T02:28:49.005Z,32.03
2022-12-26T02:31:28.744Z,33.97
2022-12-26T02:34:12.508Z,33.87
2022-12-26T02:37:01.235Z,30.43
2022-12-26T02:39:45.343Z,34.43
2022-12-26T02:42:43.806Z,36.00
2022-12-26T02:45:58.904Z,42.70
2022-12-26T02:48:52.364Z,38.53
2022-12-26T02:52:07.497Z,38.63
2022-12-26T02:55:33.517Z,37.33
2022-12-26T02:58:38.360Z,37.73
2022-12-26T03:01:36.607Z,36.90
2022-12-26T03:04:27.810Z,39.53
2022-12-26T03:07:17.192Z,39.13
2022-12-26T03:10:05.254Z,37.37
2022-12-26T03:13:13.249Z,38.53
2022-12-26T03:16:23.228Z,40.13
2022-12-26T03:18:58.151Z,40.03
2022-12-26T03:21:32.204Z,41.47
2022-12-26T03:23:59.770Z,40.20
2022-12-26T03:26:41.340Z,35.37
2022-12-26T03:29:33.907Z,35.97
2022-12-26T03:32:03.876Z,35.77
2022-12-26T03:34:30.850Z,38.10
2022-12-26T03:37:48.585Z,41.63
2022-12-26T03:40:43.632Z,37.93
2022-12-26T03:44:14.862Z,38.97
2022-12-26T03:47:12.946Z,38.13
2022-12-26T03:50:15.354Z,37.87
2022-12-26T03:53:06.653Z,38.43
2022-12-26T03:56:00.792Z,37.27
2022-12-26T03:59:13.192Z,36.57
2022-12-26T04:02:01.345Z,38.27
2022-12-26T04:04:51.869Z,38.20
2022-12-26T04:07:56.468Z,39.93
2022-12-26T04:10:53.377Z,41.47
2022-12-26T04:13:45.855Z,37.10
2022-12-26T04:16:54.825Z,36.57
2022-12-26T04:19:28.297Z,38.60
2022-12-26T04:22:53.751Z,42.43
2022-12-26T04:25:49.487Z,44.13
2022-12-26T04:28:39.466Z,41.57
2022-12-26T04:31:45.405Z,39.03
2022-12-26T04:34:44.248Z,39.37
2022-12-26T04:37:39.455Z,37.07
2022-12-26T04:40:30.637Z,38.37
2022-12-26T04:43:46.769Z,41.50
2022-12-26T04:46:05.383Z,48.63
2022-12-26T04:48:52.497Z,50.83
2022-12-26T04:51:19.435Z,37.77
2022-12-26T04:53:46.642Z,37.00
2022-12-26T04:56:14.824Z,40.67
2022-12-26T04:58:42.013Z,43.53
2022-12-26T05:01:28.275Z,44.67
2022-12-26T05:04:14.043Z,44.70
2022-12-26T05:07:00.139Z,51.00
2022-12-26T05:09:36.654Z,47.63
2022-12-26T05:12:05.435Z,39.40
2022-12-26T05:14:35.731Z,38.00
2022-12-26T05:17:25.827Z,35.70
2022-12-26T05:20:11.751Z,36.33
2022-12-26T05:22:59.825Z,35.47
2022-12-26T05:25:48.499Z,39.27
2022-12-26T05:28:36.040Z,44.70
2022-12-26T05:31:04.504Z,41.20
2022-12-26T05:33:50.619Z,37.93
2022-12-26T05:36:20.680Z,38.57
2022-12-26T05:38:48.495Z,40.97
2022-12-26T05:41:16.318Z,38.60
2022-12-26T05:43:43.307Z,44.83
2022-12-26T05:46:10.640Z,53.17
2022-12-26T05:48:37.685Z,40.97
2022-12-26T05:51:05.392Z,39.03
2022-12-26T05:53:33.436Z,38.80
2022-12-26T05:56:05.716Z,47.13
2022-12-26T05:58:33.157Z,50.93
2022-12-26T06:01:12.784Z,46.90
2022-12-26T06:03:41.734Z,52.27
2022-12-26T06:06:10.421Z,52.43
2022-12-26T06:08:39.315Z,45.80
2022-12-26T06:11:09.195Z,39.73
2022-12-26T06:13:40.339Z,40.07
2022-12-26T06:16:10.226Z,40.90
2022-12-26T06:18:38.105Z,40.03
2022-12-26T06:21:07.852Z,44.10
2022-12-26T06:23:36.169Z,35.83
2022-12-26T06:26:04.726Z,36.70
2022-12-26T06:28:33.710Z,51.70
2022-12-26T06:31:34.931Z,49.63
2022-12-26T06:34:02.194Z,50.40
2022-12-26T06:36:29.983Z,52.07
2022-12-26T06:38:57.517Z,35.53
2022-12-26T06:41:25.613Z,35.00
2022-12-26T06:43:53.310Z,36.13
2022-12-26T06:46:22.778Z,38.77
2022-12-26T06:48:50.238Z,40.17
2022-12-26T06:51:23.521Z,40.53
2022-12-26T06:53:52.158Z,45.13
2022-12-26T06:56:22.760Z,36.80
2022-12-26T06:58:54.781Z,35.43
2022-12-26T07:01:23.350Z,33.93
2022-12-26T07:03:52.599Z,34.77
2022-12-26T07:06:29.069Z,33.97
2022-12-26T07:09:04.544Z,33.13
2022-12-26T07:11:34.017Z,37.60
2022-12-26T07:14:01.393Z,35.87
2022-12-26T07:16:29.016Z,31.30
2022-12-26T07:18:57.636Z,31.60
2022-12-26T07:21:25.780Z,30.63
2022-12-26T07:23:54.231Z,31.03
2022-12-26T07:26:22.267Z,30.67
2022-12-26T07:28:49.393Z,33.73
2022-12-26T07:31:18.365Z,32.00
2022-12-26T07:33:49.984Z,31.67
2022-12-26T07:36:17.988Z,29.00
2022-12-26T07:38:45.755Z,30.93
2022-12-26T07:41:32.500Z,31.73
2022-12-26T07:43:59.760Z,31.07
2022-12-26T07:46:27.065Z,31.57
2022-12-26T07:48:54.186Z,30.77
2022-12-26T07:51:21.835Z,31.97
2022-12-26T07:53:49.032Z,32.93
2022-12-26T07:56:16.606Z,28.27
2022-12-26T07:58:43.656Z,27.17
2022-12-26T08:01:10.960Z,28.43
2022-12-26T08:03:38.608Z,29.83
2022-12-26T08:06:06.317Z,31.93
2022-12-26T08:08:33.272Z,26.93
2022-12-26T08:11:02.573Z,28.87
2022-12-26T08:13:30.126Z,30.00
2022-12-26T08:15:58.233Z,26.73
2022-12-26T08:18:26.039Z,27.23
2022-12-26T08:20:53.280Z,21.00
2022-12-26T08:23:20.275Z,17.97
2022-12-26T08:25:47.590Z,18.73
2022-12-26T08:28:14.579Z,17.57
2022-12-26T08:30:42.202Z,17.00
2022-12-26T08:33:10.713Z,15.63
2022-12-26T08:35:39.380Z,17.20
2022-12-26T08:38:06.699Z,16.30
2022-12-26T08:40:43.183Z,16.53
2022-12-26T08:46:06.971Z,15.37
2022-12-26T08:48:35.168Z,16.40
2022-12-26T08:51:08.743Z,16.70
2022-12-26T08:53:36.392Z,15.50
2022-12-26T08:56:06.447Z,15.53
2022-12-26T08:58:34.466Z,15.77
2022-12-26T09:01:13.476Z,14.77
2022-12-26T09:03:41.481Z,15.37
2022-12-26T09:06:09.859Z,15.30
2022-12-26T09:08:38.079Z,15.50
2022-12-26T09:11:12.338Z,15.80
2022-12-26T09:13:40.351Z,14.87
2022-12-26T09:16:23.285Z,15.70
2022-12-26T09:18:58.260Z,18.23
2022-12-26T09:21:25.744Z,19.23
2022-12-26T09:23:57.686Z,17.40
2022-12-26T09:26:25.891Z,18.60
2022-12-26T09:28:53.200Z,17.47
2022-12-26T09:31:23.342Z,16.03
2022-12-26T09:33:51.059Z,16.40
2022-12-26T09:36:20.807Z,15.27
2022-12-26T09:38:48.871Z,15.23
2022-12-26T09:42:00.818Z,14.97
2022-12-26T09:44:53.224Z,15.77
2022-12-26T09:47:45.251Z,16.87
2022-12-26T09:50:24.704Z,20.53
2022-12-26T09:53:17.560Z,20.57
2022-12-26T09:55:53.410Z,19.30
2022-12-26T09:58:26.527Z,19.63
2022-12-26T10:01:15.289Z,20.87
2022-12-26T10:03:47.788Z,20.57
2022-12-26T10:06:16.731Z,19.27
2022-12-26T10:08:46.552Z,21.57
2022-12-26T10:11:28.445Z,20.47
2022-12-26T10:14:04.351Z,20.17
2022-12-26T10:17:03.562Z,21.67
2022-12-26T10:20:02.482Z,23.00
2022-12-26T10:22:32.001Z,22.13
2022-12-26T10:25:01.655Z,21.07
2022-12-26T10:27:37.197Z,20.13
2022-12-26T10:30:07.555Z,21.83
2022-12-26T10:32:43.341Z,21.87
2022-12-26T10:35:27.729Z,19.97
2022-12-26T10:37:58.239Z,19.93
2022-12-26T10:40:33.905Z,18.90
2022-12-26T10:43:20.510Z,20.73
2022-12-26T10:46:06.246Z,20.37
2022-12-26T10:48:33.326Z,20.30
2022-12-26T10:51:00.551Z,21.00
2022-12-26T10:53:27.591Z,21.17
2022-12-26T10:55:54.988Z,19.03
2022-12-26T10:58:28.123Z,18.77
2022-12-26T11:00:55.419Z,18.97
2022-12-26T11:03:22.882Z,18.53
2022-12-26T11:06:11.163Z,17.90
2022-12-26T11:08:49.291Z,16.10
2022-12-26T11:11:45.991Z,16.23
2022-12-26T11:14:33.222Z,16.13
2022-12-26T11:17:06.157Z,17.17
2022-12-26T11:19:42.512Z,16.47
2022-12-26T11:22:29.876Z,16.60
2022-12-26T11:25:13.181Z,17.13
2022-12-26T11:28:05.089Z,16.60
2022-12-26T11:30:36.963Z,18.60
2022-12-26T11:33:23.063Z,18.37
2022-12-26T11:36:21.970Z,17.00
2022-12-26T11:39:02.344Z,16.83
2022-12-26T11:41:32.178Z,17.40
2022-12-26T11:44:05.671Z,16.77
2022-12-26T11:46:47.481Z,16.93
2022-12-26T11:49:22.283Z,18.50
2022-12-26T11:51:55.626Z,19.03
2022-12-26T11:54:30.564Z,17.60
2022-12-26T11:57:41.699Z,17.87
2022-12-26T12:00:22.109Z,16.93
2022-12-26T12:02:49.333Z,13.70
2022-12-26T12:05:47.027Z,13.90
2022-12-26T12:08:49.050Z,12.00
2022-12-26T12:11:50.072Z,11.07
2022-12-26T12:14:44.484Z,12.67
2022-12-26T12:17:32.713Z,9.97
2022-12-26T12:20:30.323Z,10.57
2022-12-26T12:23:15.756Z,10.60
2022-12-26T12:25:51.500Z,10.27
2022-12-26T12:28:27.598Z,11.80
2022-12-26T12:31:12.611Z,10.90
2022-12-26T12:34:01.485Z,11.00
2022-12-26T12:36:46.875Z,10.97
2022-12-26T12:39:21.140Z,10.33
2022-12-26T12:42:06.791Z,11.33
2022-12-26T12:44:56.581Z,11.03
2022-12-26T12:47:41.735Z,10.60
2022-12-26T12:50:21.449Z,11.30
2022-12-26T12:53:13.473Z,10.97
2022-12-26T12:56:05.584Z,11.80
2022-12-26T12:59:00.773Z,12.43
2022-12-26T13:01:35.616Z,10.70
2022-12-26T13:04:15.306Z,12.10
2022-12-26T13:06:53.502Z,11.47
2022-12-26T13:09:29.322Z,10.80
2022-12-26T13:12:06.335Z,12.33
2022-12-26T13:14:55.552Z,11.90
2022-12-26T13:17:30.910Z,12.00
2022-12-26T13:20:01.766Z,11.67
2022-12-26T13:22:57.280Z,11.17
2022-12-26T13:25:28.023Z,10.70
2022-12-26T13:28:09.418Z,11.13
2022-12-26T13:30:38.360Z,11.03
2022-12-26T13:33:06.424Z,10.47
2022-12-26T13:35:48.446Z,10.93
2022-12-26T13:38:15.804Z,10.47
2022-12-26T13:41:18.089Z,10.23
2022-12-26T13:44:05.540Z,11.83
2022-12-26T13:46:41.622Z,10.40
2022-12-26T13:49:35.962Z,10.73
2022-12-26T13:52:11.799Z,10.60
2022-12-26T13:54:48.166Z,10.60
2022-12-26T13:57:33.155Z,10.90
2022-12-26T14:00:09.796Z,8.77
2022-12-26T14:03:19.110Z,9.47
2022-12-26T14:06:17.913Z,9.73
2022-12-26T14:08:57.153Z,8.53
2022-12-26T14:11:45.414Z,8.20
2022-12-26T14:14:37.080Z,9.03
2022-12-26T14:17:25.337Z,8.10
2022-12-26T14:20:16.894Z,8.47
2022-12-26T14:23:02.214Z,9.27
2022-12-26T14:25:53.549Z,8.07
2022-12-26T14:28:43.799Z,9.13
2022-12-26T14:31:40.199Z,9.20
2022-12-26T14:34:18.819Z,9.23
2022-12-26T14:37:04.015Z,9.80
2022-12-26T14:39:33.705Z,9.93
2022-12-26T14:42:24.779Z,11.10
2022-12-26T14:45:02.455Z,10.80
2022-12-26T14:47:41.034Z,10.97
2022-12-26T14:50:32.618Z,11.63
2022-12-26T14:53:19.018Z,10.63
2022-12-26T14:55:53.646Z,10.20
2022-12-26T14:58:48.378Z,11.60
2022-12-26T15:01:15.867Z,10.87
2022-12-26T15:04:18.398Z,9.97
2022-12-26T15:07:00.133Z,9.53
2022-12-26T15:09:57.695Z,11.33
2022-12-26T15:12:39.456Z,10.93
2022-12-26T15:15:14.879Z,11.17
2022-12-26T15:18:00.719Z,11.47
2022-12-26T15:21:00.491Z,11.60
2022-12-26T15:24:02.837Z,11.87
2022-12-26T15:26:48.611Z,12.63
2022-12-26T15:29:47.814Z,11.73
2022-12-26T15:32:43.927Z,12.57
2022-12-26T15:35:22.542Z,13.40
2022-12-26T15:44:45.155Z,13.30
2022-12-26T15:47:32.178Z,14.43
2022-12-26T16:03:02.561Z,16.97
2022-12-26T16:05:42.363Z,14.70
2022-12-26T16:08:24.065Z,15.37
2022-12-26T16:11:18.428Z,15.10
2022-12-26T16:14:05.744Z,15.20
2022-12-26T16:16:36.101Z,15.77
2022-12-26T16:19:16.718Z,15.40
2022-12-26T16:22:08.348Z,14.77
2022-12-26T16:24:37.888Z,15.20
2022-12-26T16:27:08.061Z,15.63
2022-12-26T16:29:46.625Z,15.53
2022-12-26T16:32:18.263Z,16.00
2022-12-26T16:34:46.008Z,15.03
2022-12-26T16:37:22.514Z,16.73
2022-12-26T16:40:22.489Z,16.47
2022-12-26T16:43:21.424Z,16.20
2022-12-26T16:45:50.904Z,15.60
2022-12-26T16:48:21.850Z,16.10
2022-12-26T16:51:04.252Z,16.20
2022-12-26T16:53:34.552Z,15.80
2022-12-26T16:56:29.102Z,15.53
2022-12-26T16:59:17.002Z,15.10
2022-12-26T17:01:54.690Z,14.63
2022-12-26T17:04:25.108Z,15.00
2022-12-26T17:06:57.306Z,15.10
2022-12-26T17:09:27.153Z,13.30
2022-12-26T17:11:55.849Z,12.57
2022-12-26T17:14:28.088Z,13.77
2022-12-26T17:17:04.423Z,12.73
2022-12-26T17:19:34.875Z,12.73
2022-12-26T17:22:20.137Z,13.47
2022-12-26T17:24:50.271Z,14.37
2022-12-26T17:27:18.646Z,15.73
2022-12-26T17:29:53.483Z,15.57
2022-12-26T17:32:44.500Z,14.97
2022-12-26T17:35:19.468Z,15.57
2022-12-26T17:37:50.138Z,18.47
2022-12-26T17:40:18.984Z,18.30
2022-12-26T17:42:50.361Z,18.73
2022-12-26T17:45:26.094Z,18.87
2022-12-26T17:47:54.594Z,19.47
2022-12-26T17:50:24.362Z,17.63
2022-12-26T17:52:51.743Z,16.33
2022-12-26T17:55:27.037Z,16.43
2022-12-26T17:57:54.039Z,17.53
2022-12-26T18:00:24.374Z,18.03
2022-12-26T18:02:51.788Z,19.03
2022-12-26T18:05:20.487Z,16.97
2022-12-26T18:07:49.643Z,17.57
2022-12-26T18:10:29.344Z,17.10
2022-12-26T18:12:57.314Z,18.07
2022-12-26T18:15:27.529Z,18.53
2022-12-26T18:17:54.578Z,17.13
2022-12-26T18:20:25.621Z,16.80
2022-12-26T18:22:52.902Z,16.07
2022-12-26T18:25:24.683Z,17.20
2022-12-26T18:27:52.208Z,15.90
2022-12-26T18:30:24.935Z,16.53
2022-12-26T18:32:53.095Z,16.70
2022-12-26T18:35:21.280Z,16.13
2022-12-26T18:37:51.244Z,16.10
2022-12-26T18:40:29.539Z,16.03
2022-12-26T18:42:56.557Z,16.20
2022-12-26T18:45:24.297Z,15.83
2022-12-26T18:47:51.471Z,16.40
2022-12-26T18:50:18.869Z,15.50
2022-12-26T18:52:51.581Z,15.23
2022-12-26T18:55:21.785Z,15.47
2022-12-26T18:57:48.902Z,15.40
2022-12-26T19:00:20.226Z,14.93
2022-12-26T19:02:48.245Z,15.70
2022-12-26T19:05:34.540Z,14.77
2022-12-26T19:08:02.938Z,16.90
2022-12-26T19:10:33.781Z,16.30
2022-12-26T19:13:06.020Z,15.97
2022-12-26T19:15:35.326Z,15.80
2022-12-26T19:18:03.707Z,15.07
2022-12-26T19:20:31.484Z,16.07
2022-12-26T19:22:58.503Z,17.33
2022-12-26T19:25:26.638Z,15.93
2022-12-26T19:27:54.503Z,15.97
2022-12-26T19:30:22.812Z,16.70
2022-12-26T19:32:50.828Z,16.33
2022-12-26T19:35:18.502Z,16.03
2022-12-26T19:37:45.823Z,16.70
2022-12-26T19:40:18.397Z,17.13
2022-12-26T19:42:48.402Z,18.13
2022-12-26T19:45:16.202Z,19.17
2022-12-26T19:47:43.187Z,18.20
2022-12-26T19:50:11.689Z,16.97
2022-12-26T19:52:39.578Z,16.53
2022-12-26T19:55:08.382Z,16.27
2022-12-26T19:57:35.490Z,17.93
2022-12-26T20:00:03.990Z,16.97
2022-12-26T20:02:31.107Z,16.73
2022-12-26T20:04:58.468Z,15.60
2022-12-26T20:07:25.479Z,16.30
2022-12-26T20:09:52.777Z,15.40
2022-12-26T20:12:19.938Z,16.07
2022-12-26T20:14:47.227Z,16.53
2022-12-26T20:17:14.337Z,14.90
2022-12-26T20:19:43.333Z,15.13
2022-12-26T20:22:11.957Z,14.60
2022-12-26T20:24:39.216Z,14.47
2022-12-26T20:27:06.254Z,14.07
2022-12-26T20:29:33.615Z,14.77
2022-12-26T20:32:00.661Z,14.53
2022-12-26T20:34:28.146Z,14.27
2022-12-26T20:36:55.138Z,13.87
2022-12-26T20:39:23.377Z,14.03
2022-12-26T20:41:51.008Z,12.43
2022-12-26T20:44:18.722Z,13.23
2022-12-26T20:46:45.875Z,13.43
2022-12-26T20:49:13.264Z,13.43
2022-12-26T20:51:41.931Z,13.80
2022-12-26T20:54:11.616Z,12.83
2022-12-26T20:56:40.233Z,13.23
2022-12-26T20:59:07.772Z,13.30
2022-12-26T21:01:36.600Z,12.97
2022-12-26T21:04:04.286Z,12.37
2022-12-26T21:06:34.949Z,12.53
2022-12-26T21:09:02.645Z,13.30
2022-12-26T21:11:32.456Z,12.70
2022-12-26T21:14:05.733Z,13.17
2022-12-26T21:16:36.893Z,12.40
2022-12-26T21:19:08.030Z,12.17
2022-12-26T21:21:41.101Z,13.47
2022-12-26T21:24:12.801Z,13.13
2022-12-26T21:26:42.459Z,12.80
2022-12-26T21:29:14.226Z,12.87
2022-12-26T21:31:42.240Z,13.53
2022-12-26T21:34:10.382Z,12.50
2022-12-26T21:36:39.082Z,14.17
2022-12-26T21:39:08.645Z,14.00
2022-12-26T21:41:38.943Z,13.87
2022-12-26T21:44:05.949Z,14.43
2022-12-26T21:46:33.276Z,13.27
2022-12-26T21:49:01.087Z,14.57
2022-12-26T21:51:29.710Z,14.83
2022-12-26T21:54:16.647Z,14.70
2022-12-26T21:56:43.856Z,13.17
2022-12-26T21:59:29.545Z,12.67
2022-12-26T22:01:56.905Z,13.03
2022-12-26T22:04:24.010Z,13.43
2022-12-26T22:06:51.716Z,13.07
2022-12-26T22:09:18.888Z,13.03
2022-12-26T22:12:05.584Z,12.87
2022-12-26T22:14:32.534Z,13.23
2022-12-26T22:16:59.767Z,13.23
2022-12-26T22:19:26.792Z,13.03
2022-12-26T22:21:54.928Z,11.93
2022-12-26T22:24:22.678Z,13.40
2022-12-26T22:26:50.258Z,12.47
2022-12-26T22:29:17.205Z,11.97
2022-12-26T22:31:44.647Z,14.10
2022-12-26T22:34:14.075Z,14.13
2022-12-26T22:36:42.286Z,12.97
2022-12-26T22:39:14.024Z,12.67
2022-12-26T22:41:41.276Z,13.40
2022-12-26T22:44:14.933Z,13.70
2022-12-26T22:46:42.857Z,13.47
2022-12-26T22:49:09.938Z,13.67
2022-12-26T22:51:37.420Z,14.87
2022-12-26T22:54:04.426Z,14.97
2022-12-26T22:56:33.194Z,14.67
2022-12-26T22:59:00.678Z,15.77
2022-12-26T23:01:28.718Z,14.03
2022-12-26T23:03:55.882Z,14.53
2022-12-26T23:06:26.593Z,14.03
2022-12-26T23:08:56.672Z,13.77
2022-12-26T23:11:32.176Z,14.50
2022-12-26T23:14:03.171Z,14.00
2022-12-26T23:16:44.192Z,14.03
2022-12-26T23:19:44.545Z,15.50
2022-12-26T23:22:11.972Z,14.63
2022-12-26T23:24:38.916Z,14.67
2022-12-26T23:27:26.801Z,14.70
2022-12-26T23:30:13.513Z,14.73
2022-12-26T23:32:42.913Z,15.70
2022-12-26T23:35:11.084Z,14.77
2022-12-26T23:37:40.172Z,14.90
2022-12-26T23:40:09.255Z,15.70
2022-12-26T23:42:37.067Z,14.57
2022-12-26T23:45:04.432Z,14.30
2022-12-26T23:47:31.829Z,14.37
2022-12-26T23:49:58.768Z,14.47
2022-12-26T23:52:30.244Z,14.30
2022-12-26T23:54:58.146Z,13.93
2022-12-26T23:57:26.077Z,14.23
2022-12-26T23:59:53.169Z,13.77
